createdAt,value
2023-05-05T00:00:00.172Z,65.45
2023-05-05T00:01:00.054Z,63.62
2023-05-05T00:02:00.098Z,63.72
2023-05-05T00:03:00.148Z,65.85
2023-05-05T00:04:00.079Z,64.53
2023-05-05T00:05:00.071Z,64.33
2023-05-05T00:05:59.993Z,64.43
2023-05-05T00:06:59.967Z,65.04
2023-05-05T00:08:00.036Z,65.45
2023-05-05T00:08:59.943Z,65.24
2023-05-05T00:09:59.955Z,65.55
2023-05-05T00:10:59.910Z,66.69
2023-05-05T00:11:59.965Z,69.00
2023-05-05T00:12:59.927Z,65.48
2023-05-05T00:13:59.894Z,67.00
2023-05-05T00:15:00.000Z,66.60
2023-05-05T00:15:59.926Z,66.39
2023-05-05T00:16:59.886Z,67.30
2023-05-05T00:17:59.918Z,67.10
2023-05-05T00:18:59.839Z,65.78
2023-05-05T00:19:59.891Z,65.68
2023-05-05T00:20:59.789Z,66.08
2023-05-05T00:21:59.779Z,65.58
2023-05-05T00:22:59.831Z,66.49
2023-05-05T00:23:59.774Z,67.81
2023-05-05T00:24:59.995Z,69.03
2023-05-05T00:25:59.836Z,66.49
2023-05-05T00:26:59.765Z,67.41
2023-05-05T00:27:59.740Z,67.10
2023-05-05T00:28:59.708Z,68.83
2023-05-05T00:29:59.720Z,66.12
2023-05-05T00:30:59.761Z,66.02
2023-05-05T00:31:59.733Z,67.03
2023-05-05T00:32:59.738Z,67.44
2023-05-05T00:33:59.699Z,67.64
2023-05-05T00:34:59.654Z,68.66
2023-05-05T00:35:59.836Z,66.63
2023-05-05T00:36:59.671Z,67.03
2023-05-05T00:37:59.760Z,67.33
2023-05-05T00:38:59.649Z,66.93
2023-05-05T00:39:59.628Z,66.52
2023-05-05T00:40:59.617Z,68.18
2023-05-05T00:41:59.588Z,67.06
2023-05-05T00:42:59.715Z,65.64
2023-05-05T00:43:59.637Z,68.89
2023-05-05T00:44:59.544Z,68.38
2023-05-05T00:45:59.674Z,67.77
2023-05-05T00:46:59.524Z,68.59
2023-05-05T00:47:59.755Z,70.62
2023-05-05T00:48:59.592Z,70.62
2023-05-05T00:49:59.494Z,68.59
2023-05-05T00:50:59.636Z,69.60
2023-05-05T00:51:59.481Z,68.49
2023-05-05T00:52:59.492Z,67.67
2023-05-05T00:53:59.569Z,66.35
2023-05-05T00:54:59.486Z,67.36
2023-05-05T00:55:59.594Z,68.08
2023-05-05T00:56:59.438Z,67.67
2023-05-05T00:57:59.448Z,67.16
2023-05-05T00:58:59.503Z,67.47
2023-05-05T00:59:59.412Z,67.88
2023-05-05T01:00:59.393Z,67.16
2023-05-05T01:01:59.594Z,67.67
2023-05-05T01:02:59.494Z,67.36
2023-05-05T01:03:59.531Z,65.74
2023-05-05T01:04:59.339Z,66.76
2023-05-05T01:05:59.333Z,68.15
2023-05-05T01:06:59.341Z,68.45
2023-05-05T01:07:59.374Z,68.86
2023-05-05T01:08:59.417Z,72.62
2023-05-05T01:10:15.114Z,69.06
2023-05-05T01:10:59.292Z,66.83
2023-05-05T01:11:59.343Z,66.63
2023-05-05T01:12:59.287Z,65.91
2023-05-05T01:13:59.380Z,68.15
2023-05-05T01:14:59.279Z,67.54
2023-05-05T01:15:59.284Z,68.45
2023-05-05T01:16:59.203Z,68.76
2023-05-05T01:17:59.283Z,67.13
2023-05-05T01:18:59.227Z,70.08
2023-05-05T01:19:59.212Z,68.55
2023-05-05T01:20:59.143Z,66.72
2023-05-05T01:21:59.140Z,67.13
2023-05-05T01:22:59.159Z,66.93
2023-05-05T01:23:59.254Z,66.72
2023-05-05T01:24:59.216Z,69.78
2023-05-05T01:25:59.141Z,69.26
2023-05-05T01:26:59.168Z,67.03
2023-05-05T01:27:59.123Z,68.25
2023-05-05T01:28:59.313Z,76.28
2023-05-05T01:29:59.135Z,71.20
2023-05-05T01:30:59.077Z,71.20
2023-05-05T01:31:59.245Z,70.99
2023-05-05T01:32:59.099Z,71.70
2023-05-05T01:33:59.015Z,70.48
2023-05-05T01:34:59.062Z,71.80
2023-05-05T01:35:59.024Z,71.20
2023-05-05T01:36:59.077Z,74.14
2023-05-05T01:37:58.992Z,72.11
2023-05-05T01:38:58.981Z,69.06
2023-05-05T01:39:58.955Z,68.86
2023-05-05T01:40:58.944Z,66.72
2023-05-05T01:41:59.030Z,65.20
2023-05-05T01:42:58.987Z,64.59
2023-05-05T01:43:58.913Z,63.58
2023-05-05T01:44:58.997Z,63.37
2023-05-05T01:45:58.966Z,68.25
2023-05-05T01:46:59.005Z,67.74
2023-05-05T01:47:58.969Z,68.35
2023-05-05T01:48:58.888Z,66.93
2023-05-05T01:49:58.932Z,65.00
2023-05-05T01:50:58.824Z,64.39
2023-05-05T01:51:58.853Z,63.98
2023-05-05T01:52:58.820Z,64.32
2023-05-05T01:53:58.816Z,64.52
2023-05-05T01:54:58.796Z,66.35
2023-05-05T01:55:58.807Z,67.67
2023-05-05T01:56:58.945Z,68.05
2023-05-05T01:57:58.817Z,69.37
2023-05-05T01:58:58.820Z,66.25
2023-05-05T01:59:58.869Z,65.81
2023-05-05T02:00:58.797Z,65.91
2023-05-05T02:01:58.863Z,65.71
2023-05-05T02:02:58.781Z,68.96
2023-05-05T02:03:58.693Z,64.90
2023-05-05T02:04:58.706Z,62.56
2023-05-05T02:05:58.777Z,69.30
2023-05-05T02:06:58.867Z,63.30
2023-05-05T02:07:58.722Z,63.71
2023-05-05T02:08:58.687Z,67.06
2023-05-05T02:09:58.640Z,63.00
2023-05-05T02:10:58.629Z,64.83
2023-05-05T02:11:58.659Z,64.12
2023-05-05T02:12:58.655Z,66.55
2023-05-05T02:13:58.622Z,63.20
2023-05-05T02:14:58.575Z,64.62
2023-05-05T02:15:58.694Z,65.74
2023-05-05T02:16:58.622Z,63.00
2023-05-05T02:17:58.658Z,62.79
2023-05-05T02:18:58.550Z,64.73
2023-05-05T02:19:58.560Z,63.30
2023-05-05T02:20:58.544Z,63.10
2023-05-05T02:21:58.563Z,62.79
2023-05-05T02:22:58.585Z,62.93
2023-05-05T02:23:58.513Z,63.02
2023-05-05T02:24:58.495Z,62.41
2023-05-05T02:25:58.513Z,63.33
2023-05-05T02:26:58.442Z,63.23
2023-05-05T02:27:58.600Z,64.35
2023-05-05T02:28:58.465Z,63.23
2023-05-05T02:29:58.458Z,65.57
2023-05-05T02:30:58.499Z,66.58
2023-05-05T02:31:58.374Z,67.40
2023-05-05T02:32:58.558Z,67.19
2023-05-05T02:33:58.378Z,66.38
2023-05-05T02:34:58.381Z,66.49
2023-05-05T02:35:58.404Z,68.21
2023-05-05T02:36:58.359Z,65.57
2023-05-05T02:37:58.375Z,65.16
2023-05-05T02:38:58.393Z,64.86
2023-05-05T02:39:58.322Z,66.08
2023-05-05T02:40:58.387Z,63.74
2023-05-05T02:41:58.331Z,64.35
2023-05-05T02:42:58.326Z,65.88
2023-05-05T02:43:58.337Z,69.64
2023-05-05T02:44:58.290Z,66.28
2023-05-05T02:45:58.317Z,63.94
2023-05-05T02:46:58.262Z,64.04
2023-05-05T02:47:58.398Z,64.25
2023-05-05T02:48:58.235Z,63.94
2023-05-05T02:49:58.254Z,66.49
2023-05-05T02:50:58.189Z,65.67
2023-05-05T02:51:58.193Z,65.36
2023-05-05T02:52:58.195Z,66.18
2023-05-05T02:53:58.252Z,64.96
2023-05-05T02:54:58.157Z,64.96
2023-05-05T02:55:58.178Z,65.70
2023-05-05T02:56:58.135Z,66.41
2023-05-05T02:57:58.113Z,66.11
2023-05-05T02:58:58.234Z,67.33
2023-05-05T02:59:58.134Z,66.21
2023-05-05T03:00:58.153Z,66.21
2023-05-05T03:01:58.131Z,67.13
2023-05-05T03:02:58.135Z,66.52
2023-05-05T03:03:58.220Z,67.94
2023-05-05T03:04:58.066Z,68.24
2023-05-05T03:05:58.169Z,68.35
2023-05-05T03:06:58.051Z,69.06
2023-05-05T03:07:58.023Z,68.35
2023-05-05T03:08:58.071Z,68.58
2023-05-05T03:09:57.992Z,71.09
2023-05-05T03:10:57.966Z,68.99
2023-05-05T03:11:58.020Z,69.49
2023-05-05T03:12:58.033Z,69.09
2023-05-05T03:13:58.103Z,69.60
2023-05-05T03:14:57.991Z,68.18
2023-05-05T03:15:58.063Z,69.49
2023-05-05T03:16:57.999Z,69.09
2023-05-05T03:17:57.911Z,68.79
2023-05-05T03:18:58.057Z,70.01
2023-05-05T03:19:57.999Z,69.60
2023-05-05T03:20:57.822Z,70.41
2023-05-05T03:21:57.993Z,70.31
2023-05-05T03:22:57.887Z,71.12
2023-05-05T03:23:57.838Z,72.25
2023-05-05T03:24:58.036Z,72.34
2023-05-05T03:25:57.824Z,70.62
2023-05-05T03:26:57.901Z,70.82
2023-05-05T03:27:57.745Z,70.41
2023-05-05T03:28:57.738Z,70.82
2023-05-05T03:29:57.791Z,70.92
2023-05-05T03:30:57.720Z,70.51
2023-05-05T03:31:57.744Z,71.64
2023-05-05T03:32:58.524Z,71.94
2023-05-05T03:33:57.698Z,71.64
2023-05-05T03:34:57.801Z,72.25
2023-05-05T03:35:57.762Z,72.34
2023-05-05T03:36:57.650Z,72.55
2023-05-05T03:37:57.717Z,72.45
2023-05-05T03:38:57.621Z,71.94
2023-05-05T03:39:57.640Z,72.86
2023-05-05T03:40:57.606Z,73.67
2023-05-05T03:41:57.590Z,74.79
2023-05-05T03:42:57.656Z,74.08
2023-05-05T03:43:57.587Z,73.47
2023-05-05T03:44:57.592Z,72.65
2023-05-05T03:45:57.631Z,72.04
2023-05-05T03:46:57.547Z,70.82
2023-05-05T03:47:57.729Z,71.16
2023-05-05T03:48:57.597Z,73.47
2023-05-05T03:49:57.624Z,72.08
2023-05-05T03:50:57.568Z,70.65
2023-05-05T03:51:57.471Z,71.56
2023-05-05T03:52:57.540Z,70.86
2023-05-05T03:53:57.508Z,70.95
2023-05-05T03:54:57.458Z,73.10
2023-05-05T03:55:57.448Z,72.89
2023-05-05T03:56:57.414Z,71.56
2023-05-05T03:57:57.549Z,72.69
2023-05-05T03:58:57.387Z,72.69
2023-05-05T03:59:57.439Z,71.87
2023-05-05T04:00:57.411Z,72.17
2023-05-05T04:01:57.393Z,72.48
2023-05-05T04:02:57.433Z,71.16
2023-05-05T04:03:57.415Z,72.38
2023-05-05T04:04:57.400Z,73.50
2023-05-05T04:05:57.334Z,74.32
2023-05-05T04:06:57.389Z,74.11
2023-05-05T04:07:57.344Z,73.60
2023-05-05T04:08:57.356Z,73.30
2023-05-05T04:09:57.288Z,74.01
2023-05-05T04:10:57.350Z,75.23
2023-05-05T04:11:57.266Z,74.62
2023-05-05T04:12:57.364Z,73.19
2023-05-05T04:13:57.273Z,73.40
2023-05-05T04:14:57.264Z,73.19
2023-05-05T04:15:57.308Z,74.62
2023-05-05T04:16:57.279Z,72.99
2023-05-05T04:17:57.369Z,73.40
2023-05-05T04:18:57.192Z,74.41
2023-05-05T04:19:57.208Z,75.02
2023-05-05T04:20:57.223Z,74.32
2023-05-05T04:21:57.179Z,74.41
2023-05-05T04:22:57.159Z,73.80
2023-05-05T04:23:57.179Z,73.40
2023-05-05T04:24:57.124Z,72.48
2023-05-05T04:25:57.134Z,72.28
2023-05-05T04:26:57.129Z,72.99
2023-05-05T04:27:57.108Z,75.54
2023-05-05T04:28:57.077Z,73.40
2023-05-05T04:29:57.102Z,73.50
2023-05-05T04:30:57.096Z,71.97
2023-05-05T04:31:57.075Z,72.31
2023-05-05T04:32:57.138Z,72.52
2023-05-05T04:33:57.135Z,71.91
2023-05-05T04:34:57.020Z,72.52
2023-05-05T04:35:57.000Z,72.31
2023-05-05T04:36:57.074Z,73.33
2023-05-05T04:37:57.025Z,73.94
2023-05-05T04:38:57.086Z,73.54
2023-05-05T04:39:56.975Z,72.72
2023-05-05T04:40:57.027Z,73.33
2023-05-05T04:41:56.978Z,71.80
2023-05-05T04:42:57.024Z,73.54
2023-05-05T04:43:56.946Z,73.43
2023-05-05T04:44:56.926Z,72.92
2023-05-05T04:45:56.915Z,74.15
2023-05-05T04:46:56.922Z,75.06
2023-05-05T04:47:56.900Z,73.54
2023-05-05T04:48:56.876Z,73.64
2023-05-05T04:49:56.874Z,75.67
2023-05-05T04:50:56.916Z,74.93
2023-05-05T04:51:56.875Z,73.10
2023-05-05T04:52:56.834Z,73.10
2023-05-05T04:53:56.860Z,73.30
2023-05-05T04:54:56.830Z,73.71
2023-05-05T04:55:56.807Z,72.38
2023-05-05T04:56:56.804Z,74.82
2023-05-05T04:57:56.785Z,72.69
2023-05-05T04:58:56.760Z,73.60
2023-05-05T04:59:56.746Z,72.69
2023-05-05T05:00:56.769Z,73.50
2023-05-05T05:01:56.773Z,78.59
2023-05-05T05:02:56.817Z,75.84
2023-05-05T05:03:56.786Z,75.33
2023-05-05T05:04:56.697Z,74.82
2023-05-05T05:05:56.676Z,73.40
2023-05-05T05:06:59.104Z,73.40
2023-05-05T05:07:56.692Z,73.91
2023-05-05T05:08:56.662Z,73.19
2023-05-05T05:09:56.646Z,75.13
2023-05-05T05:10:56.648Z,74.11
2023-05-05T05:11:56.615Z,73.80
2023-05-05T05:12:56.665Z,73.40
2023-05-05T05:13:56.613Z,74.72
2023-05-05T05:14:56.675Z,73.57
2023-05-05T05:15:56.559Z,73.67
2023-05-05T05:16:56.587Z,74.48
2023-05-05T05:17:56.585Z,74.38
2023-05-05T05:18:56.561Z,75.09
2023-05-05T05:19:56.537Z,76.62
2023-05-05T05:20:56.555Z,75.30
2023-05-05T05:21:56.514Z,75.50
2023-05-05T05:22:56.526Z,74.69
2023-05-05T05:23:56.490Z,75.50
2023-05-05T05:24:56.483Z,76.42
2023-05-05T05:25:56.478Z,77.33
2023-05-05T05:26:56.479Z,75.40
2023-05-05T05:28:08.738Z,77.53
2023-05-05T05:28:56.441Z,76.68
2023-05-05T05:29:56.414Z,76.38
2023-05-05T05:30:56.438Z,78.41
2023-05-05T05:31:56.467Z,76.07
2023-05-05T05:32:56.560Z,73.94
2023-05-05T05:33:56.417Z,73.23
2023-05-05T05:34:56.402Z,74.24
2023-05-05T05:35:56.345Z,72.72
2023-05-05T05:36:56.351Z,72.72
2023-05-05T05:37:56.400Z,73.43
2023-05-05T05:38:56.332Z,74.15
2023-05-05T05:39:56.310Z,75.16
2023-05-05T05:40:56.296Z,71.80
2023-05-05T05:41:56.301Z,73.23
2023-05-05T05:42:56.345Z,72.69
2023-05-05T05:43:56.272Z,71.97
2023-05-05T05:44:56.296Z,74.41
2023-05-05T05:45:56.324Z,72.48
2023-05-05T05:46:56.237Z,72.89
2023-05-05T05:47:56.274Z,72.08
2023-05-05T05:48:56.441Z,71.36
2023-05-05T05:49:56.201Z,70.35
2023-05-05T05:50:56.191Z,70.25
2023-05-05T05:51:56.193Z,69.64
2023-05-05T05:52:56.162Z,71.53
2023-05-05T05:53:58.205Z,68.99
2023-05-05T05:54:56.159Z,70.42
2023-05-05T05:55:56.126Z,69.40
2023-05-05T05:56:56.161Z,72.04
2023-05-05T05:57:56.152Z,71.12
2023-05-05T05:58:56.124Z,77.39
2023-05-05T05:59:56.106Z,72.21
2023-05-05T06:00:56.109Z,74.75
2023-05-05T06:01:56.100Z,73.94
2023-05-05T06:02:56.109Z,73.22
2023-05-05T06:03:56.144Z,72.11
2023-05-05T06:04:56.038Z,72.78
2023-05-05T06:05:56.020Z,75.43
2023-05-05T06:06:56.057Z,72.48
2023-05-05T06:07:56.009Z,73.50
2023-05-05T06:08:56.029Z,70.25
2023-05-05T06:09:55.981Z,71.77
2023-05-05T06:10:56.008Z,71.77
2023-05-05T06:11:55.961Z,70.52
2023-05-05T06:12:56.019Z,71.94
2023-05-05T06:13:55.987Z,70.92
2023-05-05T06:14:55.979Z,69.60
2023-05-05T06:15:55.944Z,70.72
2023-05-05T06:16:55.917Z,67.95
2023-05-05T06:17:55.945Z,68.15
2023-05-05T06:18:55.940Z,68.96
2023-05-05T06:19:55.925Z,70.89
2023-05-05T06:20:55.891Z,69.34
2023-05-05T06:21:55.857Z,68.23
2023-05-05T06:22:55.855Z,67.00
2023-05-05T06:23:55.891Z,66.70
2023-05-05T06:24:55.861Z,66.60
2023-05-05T06:25:55.848Z,66.37
2023-05-05T06:26:55.881Z,65.86
2023-05-05T06:27:55.822Z,66.37
2023-05-05T06:28:55.788Z,66.27
2023-05-05T06:29:55.777Z,65.96
2023-05-05T06:30:55.781Z,65.96
2023-05-05T06:31:55.766Z,65.76
2023-05-05T06:32:55.794Z,66.24
2023-05-05T06:33:55.768Z,66.03
2023-05-05T06:34:55.724Z,66.03
2023-05-05T06:35:55.726Z,67.62
2023-05-05T06:36:55.875Z,66.20
2023-05-05T06:37:55.698Z,65.09
2023-05-05T06:38:55.761Z,64.79
2023-05-05T06:39:55.701Z,65.70
2023-05-05T06:40:55.688Z,64.55
2023-05-05T06:41:55.641Z,65.67
2023-05-05T06:42:55.666Z,64.25
2023-05-05T06:43:55.612Z,64.15
2023-05-05T06:44:55.613Z,64.35
2023-05-05T06:45:55.614Z,62.53
2023-05-05T06:46:55.649Z,62.96
2023-05-05T06:47:55.699Z,63.87
2023-05-05T06:48:55.607Z,64.07
2023-05-05T06:49:55.568Z,62.86
2023-05-05T06:50:55.570Z,62.96
2023-05-05T06:51:55.534Z,62.56
2023-05-05T06:52:55.542Z,61.85
2023-05-05T06:53:55.521Z,62.35
2023-05-05T06:54:55.520Z,61.95
2023-05-05T06:55:55.500Z,64.99
2023-05-05T06:56:56.992Z,64.25
2023-05-05T06:57:55.515Z,62.63
2023-05-05T06:58:55.466Z,63.75
2023-05-05T06:59:55.445Z,63.95
2023-05-05T07:00:55.613Z,62.53
2023-05-05T07:01:56.514Z,64.96
2023-05-05T07:02:55.456Z,62.84
2023-05-05T07:03:55.432Z,61.49
2023-05-05T07:04:55.620Z,61.59
2023-05-05T07:05:55.410Z,62.10
2023-05-05T07:06:55.418Z,61.49
2023-05-05T07:07:55.372Z,60.85
2023-05-05T07:08:55.414Z,60.75
2023-05-05T07:09:55.389Z,61.25
2023-05-05T07:10:55.375Z,60.96
2023-05-05T07:11:55.322Z,61.36
2023-05-05T07:12:55.388Z,60.65
2023-05-05T07:13:55.325Z,61.66
2023-05-05T07:14:55.301Z,61.43
2023-05-05T07:15:55.285Z,61.33
2023-05-05T07:16:55.303Z,61.53
2023-05-05T07:17:55.364Z,60.69
2023-05-05T07:18:55.260Z,60.09
2023-05-05T07:19:55.245Z,62.51
2023-05-05T07:20:55.275Z,61.07
2023-05-05T07:21:55.261Z,61.57
2023-05-05T07:22:55.248Z,60.87
2023-05-05T07:23:55.206Z,59.63
2023-05-05T07:24:55.204Z,61.85
2023-05-05T07:25:55.186Z,61.01
2023-05-05T07:26:55.510Z,61.32
2023-05-05T07:27:55.187Z,62.80
2023-05-05T07:28:55.145Z,60.28
2023-05-05T07:29:55.157Z,59.14
2023-05-05T07:30:55.156Z,60.05
2023-05-05T07:31:55.270Z,59.22
2023-05-05T07:32:55.549Z,59.82
2023-05-05T07:33:55.093Z,58.28
2023-05-05T07:34:55.097Z,57.68
2023-05-05T07:35:55.158Z,58.78
2023-05-05T07:36:55.153Z,59.89
2023-05-05T07:37:55.063Z,59.89
2023-05-05T07:38:55.081Z,59.26
2023-05-05T07:39:55.054Z,59.86
2023-05-05T07:40:55.023Z,59.16
2023-05-05T07:41:55.008Z,58.42
2023-05-05T07:42:55.032Z,56.71
2023-05-05T07:43:54.990Z,57.62
2023-05-05T07:44:54.973Z,57.42
2023-05-05T07:45:55.028Z,58.83
2023-05-05T07:46:54.997Z,58.29
2023-05-05T07:47:54.981Z,61.21
2023-05-05T07:48:54.943Z,57.37
2023-05-05T07:49:54.948Z,56.66
2023-05-05T07:50:54.935Z,57.87
2023-05-05T07:51:54.896Z,57.46
2023-05-05T07:53:02.565Z,57.37
2023-05-05T07:53:54.892Z,58.47
2023-05-05T07:54:54.875Z,57.17
2023-05-05T07:55:54.867Z,56.54
2023-05-05T07:56:54.877Z,56.63
2023-05-05T07:57:54.847Z,57.04
2023-05-05T07:58:54.837Z,57.41
2023-05-05T07:59:54.802Z,57.91
2023-05-05T08:00:54.813Z,59.09
2023-05-05T08:01:55.095Z,56.78
2023-05-05T08:02:54.893Z,56.28
2023-05-05T08:03:54.842Z,56.85
2023-05-05T08:04:54.769Z,55.05
2023-05-05T08:05:54.750Z,57.26
2023-05-05T08:06:54.771Z,55.82
2023-05-05T08:07:54.735Z,55.55
2023-05-05T08:08:54.717Z,55.45
2023-05-05T08:09:54.726Z,56.18
2023-05-05T08:10:54.700Z,56.48
2023-05-05T08:11:54.685Z,58.79
2023-05-05T08:12:54.700Z,56.88
2023-05-05T08:13:54.680Z,58.09
2023-05-05T08:14:54.693Z,57.39
2023-05-05T08:15:54.699Z,57.61
2023-05-05T08:16:54.640Z,58.42
2023-05-05T08:17:54.672Z,59.22
2023-05-05T08:18:54.615Z,58.54
2023-05-05T08:19:54.658Z,58.44
2023-05-05T08:20:54.655Z,59.08
2023-05-05T08:21:54.606Z,59.58
2023-05-05T08:22:54.582Z,60.08
2023-05-05T08:23:54.561Z,59.47
2023-05-05T08:24:54.574Z,60.28
2023-05-05T08:25:54.559Z,60.48
2023-05-05T08:26:54.570Z,59.47
2023-05-05T08:27:54.559Z,59.95
2023-05-05T08:28:54.500Z,61.35
2023-05-05T08:29:54.522Z,59.85
2023-05-05T08:30:54.538Z,59.65
2023-05-05T08:31:54.640Z,60.75
2023-05-05T08:32:54.500Z,60.35
2023-05-05T08:33:54.513Z,60.75
2023-05-05T08:34:54.452Z,61.52
2023-05-05T08:35:54.444Z,59.52
2023-05-05T08:36:54.426Z,59.39
2023-05-05T08:37:55.956Z,59.36
2023-05-05T08:38:54.424Z,59.06
2023-05-05T08:39:54.422Z,61.54
2023-05-05T08:40:54.439Z,61.31
2023-05-05T08:41:54.365Z,56.90
2023-05-05T08:42:54.369Z,59.18
2023-05-05T08:43:54.386Z,58.98
2023-05-05T08:44:54.391Z,58.28
2023-05-05T08:45:54.342Z,58.18
2023-05-05T08:46:54.373Z,59.15
2023-05-05T08:47:54.350Z,58.45
2023-05-05T08:48:54.308Z,58.15
2023-05-05T08:49:54.323Z,57.15
2023-05-05T08:50:54.292Z,57.37
2023-05-05T08:51:54.303Z,57.28
2023-05-05T08:52:54.316Z,58.58
2023-05-05T08:53:54.261Z,58.50
2023-05-05T08:54:54.252Z,57.90
2023-05-05T08:55:54.260Z,59.11
2023-05-05T08:56:54.268Z,59.00
2023-05-05T08:57:54.233Z,59.20
2023-05-05T08:58:54.176Z,58.91
2023-05-05T08:59:54.179Z,58.81
2023-05-05T09:00:54.224Z,58.81
2023-05-05T09:01:54.284Z,59.53
2023-05-05T09:02:54.385Z,59.33
2023-05-05T09:03:54.171Z,59.53
2023-05-05T09:04:54.116Z,59.94
2023-05-05T09:05:54.109Z,60.03
2023-05-05T09:06:54.130Z,60.14
2023-05-05T09:07:54.133Z,60.14
2023-05-05T09:08:54.072Z,60.21
2023-05-05T09:09:54.082Z,59.70
2023-05-05T09:10:54.094Z,61.11
2023-05-05T09:11:54.046Z,60.18
2023-05-05T09:12:54.077Z,58.98
2023-05-05T09:13:54.120Z,58.78
2023-05-05T09:14:54.179Z,59.45
2023-05-05T09:15:54.038Z,58.35
2023-05-05T09:16:54.038Z,59.45
2023-05-05T09:17:53.994Z,58.72
2023-05-05T09:18:53.978Z,59.99
2023-05-05T09:19:54.078Z,57.29
2023-05-05T09:20:54.019Z,57.17
2023-05-05T09:21:53.951Z,56.87
2023-05-05T09:22:53.921Z,56.27
2023-05-05T09:23:53.969Z,57.46
2023-05-05T09:24:53.949Z,57.57
2023-05-05T09:25:53.978Z,57.34
2023-05-05T09:26:53.904Z,56.64
2023-05-05T09:27:53.966Z,56.54
2023-05-05T09:28:53.941Z,56.14
2023-05-05T09:29:53.879Z,57.84
2023-05-05T09:30:53.868Z,59.23
2023-05-05T09:31:53.865Z,56.54
2023-05-05T09:32:53.936Z,56.64
2023-05-05T09:33:53.850Z,57.44
2023-05-05T09:34:53.799Z,56.67
2023-05-05T09:35:53.793Z,58.06
2023-05-05T09:36:53.809Z,57.87
2023-05-05T09:37:53.807Z,57.67
2023-05-05T09:38:53.809Z,57.76
2023-05-05T09:39:53.815Z,56.24
2023-05-05T09:40:53.764Z,57.24
2023-05-05T09:41:53.784Z,56.34
2023-05-05T09:42:53.726Z,56.71
2023-05-05T09:43:53.741Z,56.61
2023-05-05T09:44:53.755Z,55.69
2023-05-05T09:45:53.818Z,55.99
2023-05-05T09:46:53.680Z,55.66
2023-05-05T09:47:59.088Z,55.76
2023-05-05T09:48:53.662Z,54.27
2023-05-05T09:49:53.680Z,54.24
2023-05-05T09:50:53.697Z,53.61
2023-05-05T09:51:53.654Z,53.81
2023-05-05T09:52:53.648Z,53.89
2023-05-05T09:53:53.612Z,53.09
2023-05-05T09:54:53.606Z,52.79
2023-05-05T09:55:53.629Z,52.37
2023-05-05T09:56:53.614Z,54.33
2023-05-05T09:57:53.645Z,51.54
2023-05-05T09:58:53.612Z,51.72
2023-05-05T09:59:53.600Z,51.32
2023-05-05T10:00:53.540Z,51.54
2023-05-05T10:01:53.561Z,51.65
2023-05-05T10:02:53.579Z,51.52
2023-05-05T10:03:53.562Z,51.89
2023-05-05T10:04:53.554Z,48.83
2023-05-05T10:05:53.495Z,50.20
2023-05-05T10:06:53.480Z,49.19
2023-05-05T10:07:53.612Z,49.58
2023-05-05T10:08:53.503Z,49.49
2023-05-05T10:09:53.518Z,49.46
2023-05-05T10:10:53.509Z,48.25
2023-05-05T10:11:53.455Z,49.14
2023-05-05T10:12:53.469Z,48.32
2023-05-05T10:13:53.416Z,47.45
2023-05-05T10:14:53.448Z,47.35
2023-05-05T10:15:53.467Z,48.86
2023-05-05T10:16:53.416Z,48.47
2023-05-05T10:18:05.808Z,48.57
2023-05-05T10:18:53.406Z,47.28
2023-05-05T10:19:53.360Z,46.98
2023-05-05T10:20:53.384Z,46.98
2023-05-05T10:21:53.394Z,47.08
2023-05-05T10:22:53.381Z,46.19
2023-05-05T10:23:53.372Z,45.56
2023-05-05T10:24:53.336Z,43.40
2023-05-05T10:25:53.342Z,44.97
2023-05-05T10:26:53.316Z,44.77
2023-05-05T10:27:53.412Z,45.09
2023-05-05T10:28:53.435Z,45.56
2023-05-05T10:29:53.267Z,45.07
2023-05-05T10:30:53.248Z,45.59
2023-05-05T10:31:53.331Z,43.98
2023-05-05T10:33:08.006Z,45.27
2023-05-05T10:33:53.412Z,44.87
2023-05-05T10:34:53.246Z,44.67
2023-05-05T10:35:53.230Z,45.45
2023-05-05T10:36:53.272Z,43.74
2023-05-05T10:37:53.211Z,44.65
2023-05-05T10:38:53.252Z,45.03
2023-05-05T10:39:53.174Z,44.83
2023-05-05T10:40:53.749Z,43.93
2023-05-05T10:41:53.253Z,43.76
2023-05-05T10:42:53.198Z,44.67
2023-05-05T10:43:53.190Z,46.26
2023-05-05T10:44:53.133Z,45.98
2023-05-05T10:45:53.231Z,45.61
2023-05-05T10:46:53.176Z,46.03
2023-05-05T10:47:53.252Z,47.02
2023-05-05T10:48:53.177Z,47.54
2023-05-05T10:49:53.109Z,47.54
2023-05-05T10:50:53.048Z,46.95
2023-05-05T10:51:53.124Z,46.25
2023-05-05T10:52:53.084Z,46.65
2023-05-05T10:53:53.081Z,46.05
2023-05-05T10:54:53.094Z,46.25
2023-05-05T10:55:53.024Z,46.55
2023-05-05T10:56:53.099Z,45.65
2023-05-05T10:57:53.026Z,46.13
2023-05-05T10:58:59.774Z,45.43
2023-05-05T10:59:53.025Z,45.65
2023-05-05T11:00:53.033Z,46.05
2023-05-05T11:01:52.993Z,46.55
2023-05-05T11:02:52.952Z,46.53
2023-05-05T11:03:53.048Z,45.06
2023-05-05T11:04:53.009Z,44.76
2023-05-05T11:05:52.959Z,46.25
2023-05-05T11:06:53.004Z,44.06
2023-05-05T11:07:52.936Z,43.46
2023-05-05T11:08:52.892Z,43.44
2023-05-05T11:09:52.942Z,42.35
2023-05-05T11:10:52.873Z,43.05
2023-05-05T11:11:52.877Z,43.23
2023-05-05T11:12:52.948Z,41.53
2023-05-05T11:13:52.851Z,42.03
2023-05-05T11:14:52.828Z,43.02
2023-05-05T11:15:52.838Z,41.34
2023-05-05T11:16:52.912Z,41.16
2023-05-05T11:17:52.827Z,42.63
2023-05-05T11:18:52.820Z,40.14
2023-05-05T11:19:52.838Z,39.83
2023-05-05T11:20:52.770Z,39.01
2023-05-05T11:21:52.771Z,38.79
2023-05-05T11:22:52.787Z,38.79
2023-05-05T11:23:52.760Z,37.69
2023-05-05T11:24:52.767Z,38.18
2023-05-05T11:25:52.716Z,37.98
2023-05-05T11:26:52.732Z,37.67
2023-05-05T11:27:52.730Z,37.47
2023-05-05T11:28:52.693Z,38.07
2023-05-05T11:29:52.779Z,37.65
2023-05-05T11:30:52.704Z,40.33
2023-05-05T11:31:52.788Z,39.22
2023-05-05T11:32:52.729Z,39.40
2023-05-05T11:33:52.677Z,37.43
2023-05-05T11:34:52.625Z,36.24
2023-05-05T11:35:52.658Z,35.34
2023-05-05T11:36:52.624Z,33.65
2023-05-05T11:37:52.650Z,33.65
2023-05-05T11:38:52.621Z,34.45
2023-05-05T11:39:52.698Z,34.03
2023-05-05T11:40:52.588Z,32.25
2023-05-05T11:41:52.568Z,30.57
2023-05-05T11:42:52.552Z,32.06
2023-05-05T11:43:52.576Z,32.75
2023-05-05T11:44:52.620Z,32.55
2023-05-05T11:45:52.600Z,32.73
2023-05-05T11:46:52.525Z,32.52
2023-05-05T11:47:52.570Z,33.70
2023-05-05T11:48:52.498Z,32.40
2023-05-05T11:49:52.514Z,33.28
2023-05-05T11:50:52.485Z,33.46
2023-05-05T11:51:52.451Z,31.88
2023-05-05T11:52:52.523Z,30.99
2023-05-05T11:53:52.447Z,31.96
2023-05-05T11:54:52.541Z,32.35
2023-05-05T11:55:52.448Z,32.44
2023-05-05T11:56:52.421Z,32.84
2023-05-05T11:57:52.424Z,31.26
2023-05-05T11:58:52.419Z,32.04
2023-05-05T11:59:52.405Z,31.68
2023-05-05T12:00:52.371Z,32.67
2023-05-05T12:01:52.370Z,32.28
2023-05-05T12:02:52.441Z,31.88
2023-05-05T12:03:52.484Z,31.88
2023-05-05T12:04:52.505Z,32.37
2023-05-05T12:05:52.346Z,31.78
2023-05-05T12:06:52.322Z,31.88
2023-05-05T12:07:52.316Z,30.78
2023-05-05T12:08:52.314Z,32.04
2023-05-05T12:09:52.314Z,31.14
2023-05-05T12:10:52.318Z,31.54
2023-05-05T12:11:52.303Z,30.72
2023-05-05T12:12:55.183Z,31.88
2023-05-05T12:13:52.284Z,31.77
2023-05-05T12:14:52.253Z,30.38
2023-05-05T12:15:52.301Z,29.28
2023-05-05T12:16:52.228Z,27.62
2023-05-05T12:17:52.294Z,27.44
2023-05-05T12:18:52.220Z,28.22
2023-05-05T12:19:52.226Z,28.81
2023-05-05T12:20:52.204Z,29.79
2023-05-05T12:21:52.184Z,29.10
2023-05-05T12:22:52.190Z,29.39
2023-05-05T12:23:52.214Z,28.72
2023-05-05T12:24:53.772Z,28.34
2023-05-05T12:25:52.159Z,29.53
2023-05-05T12:26:52.134Z,29.44
2023-05-05T12:27:52.167Z,31.10
2023-05-05T12:28:53.101Z,31.00
2023-05-05T12:29:52.125Z,29.03
2023-05-05T12:30:53.249Z,30.21
2023-05-05T12:31:52.163Z,30.49
2023-05-05T12:32:52.138Z,29.99
2023-05-05T12:33:52.156Z,29.19
2023-05-05T12:34:52.068Z,29.39
2023-05-05T12:35:52.078Z,29.79
2023-05-05T12:36:52.078Z,29.39
2023-05-05T12:37:52.070Z,29.51
2023-05-05T12:38:52.010Z,30.10
2023-05-05T12:39:52.002Z,30.00
2023-05-05T12:40:52.010Z,28.52
2023-05-05T12:41:51.998Z,30.02
2023-05-05T12:42:51.989Z,29.43
2023-05-05T12:43:52.025Z,28.93
2023-05-05T12:44:51.967Z,29.51
2023-05-05T12:45:51.963Z,29.61
2023-05-05T12:46:51.943Z,28.51
2023-05-05T12:47:51.958Z,27.62
2023-05-05T12:48:51.962Z,27.33
2023-05-05T12:49:52.011Z,28.22
2023-05-05T12:50:51.910Z,26.95
2023-05-05T12:51:51.887Z,27.94